sensor_id;sensor_type;location;lat;lon;timestamp;pressure;altitude;pressure_sealevel;temperature;humidity
72570;BME280;60594;50.204;8.844;2023-03-21T00:00:56;100233.50;;;8.82;76.52
72570;BME280;60594;50.204;8.844;2023-03-21T00:03:23;100236.06;;;8.84;76.50
72570;BME280;60594;50.204;8.844;2023-03-21T00:05:50;100221.84;;;8.72;76.58
72570;BME280;60594;50.204;8.844;2023-03-21T00:08:20;100235.97;;;8.73;77.04
72570;BME280;60594;50.204;8.844;2023-03-21T00:10:47;100226.41;;;8.70;77.34
72570;BME280;60594;50.204;8.844;2023-03-21T00:13:20;100226.53;;;8.69;77.30
72570;BME280;60594;50.204;8.844;2023-03-21T00:15:47;100226.09;;;8.62;77.67
72570;BME280;60594;50.204;8.844;2023-03-21T00:18:16;100220.69;;;8.64;78.17
72570;BME280;60594;50.204;8.844;2023-03-21T00:20:43;100212.44;;;8.56;77.59
72570;BME280;60594;50.204;8.844;2023-03-21T00:23:12;100220.19;;;8.59;77.52
72570;BME280;60594;50.204;8.844;2023-03-21T00:25:39;100220.28;;;8.57;78.31
72570;BME280;60594;50.204;8.844;2023-03-21T00:28:05;100200.66;;;8.47;78.27
72570;BME280;60594;50.204;8.844;2023-03-21T00:30:32;100205.13;;;8.47;78.90
72570;BME280;60594;50.204;8.844;2023-03-21T00:32:58;100191.78;;;8.36;78.59
72570;BME280;60594;50.204;8.844;2023-03-21T00:35:26;100209.38;;;8.49;78.84
72570;BME280;60594;50.204;8.844;2023-03-21T00:37:52;100199.69;;;8.48;79.33
72570;BME280;60594;50.204;8.844;2023-03-21T00:40:20;100197.47;;;8.42;79.29
72570;BME280;60594;50.204;8.844;2023-03-21T00:42:46;100202.13;;;8.51;80.14
72570;BME280;60594;50.204;8.844;2023-03-21T00:45:13;100195.97;;;8.51;79.86
72570;BME280;60594;50.204;8.844;2023-03-21T00:47:43;100192.97;;;8.55;79.67
72570;BME280;60594;50.204;8.844;2023-03-21T00:50:10;100196.09;;;8.49;79.28
72570;BME280;60594;50.204;8.844;2023-03-21T00:52:38;100181.44;;;8.44;79.67
72570;BME280;60594;50.204;8.844;2023-03-21T00:55:05;100192.25;;;8.53;79.22
72570;BME280;60594;50.204;8.844;2023-03-21T00:57:32;100189.41;;;8.44;79.30
72570;BME280;60594;50.204;8.844;2023-03-21T00:59:59;100186.41;;;8.48;79.61
72570;BME280;60594;50.204;8.844;2023-03-21T01:02:25;100184.00;;;8.45;79.96
72570;BME280;60594;50.204;8.844;2023-03-21T01:04:53;100187.91;;;8.52;79.67
72570;BME280;60594;50.204;8.844;2023-03-21T01:07:19;100187.38;;;8.47;79.86
72570;BME280;60594;50.204;8.844;2023-03-21T01:09:47;100180.78;;;8.40;79.68
72570;BME280;60594;50.204;8.844;2023-03-21T01:12:15;100181.75;;;8.39;79.55
72570;BME280;60594;50.204;8.844;2023-03-21T01:14:42;100164.16;;;8.38;80.64
72570;BME280;60594;50.204;8.844;2023-03-21T01:17:08;100178.69;;;8.45;79.39
72570;BME280;60594;50.204;8.844;2023-03-21T01:19:35;100175.66;;;8.50;78.48
72570;BME280;60594;50.204;8.844;2023-03-21T01:22:05;100177.72;;;8.46;79.10
72570;BME280;60594;50.204;8.844;2023-03-21T01:24:33;100180.44;;;8.57;79.45
72570;BME280;60594;50.204;8.844;2023-03-21T01:27:02;100178.41;;;8.61;79.82
72570;BME280;60594;50.204;8.844;2023-03-21T01:29:30;100181.59;;;8.66;79.19
72570;BME280;60594;50.204;8.844;2023-03-21T01:31:57;100183.41;;;8.53;78.99
72570;BME280;60594;50.204;8.844;2023-03-21T01:34:25;100177.69;;;8.59;79.94
72570;BME280;60594;50.204;8.844;2023-03-21T01:36:51;100174.75;;;8.51;79.54
72570;BME280;60594;50.204;8.844;2023-03-21T01:39:20;100177.84;;;8.68;80.83
72570;BME280;60594;50.204;8.844;2023-03-21T01:41:48;100170.22;;;8.64;79.67
72570;BME280;60594;50.204;8.844;2023-03-21T01:44:21;100167.63;;;8.75;80.02
72570;BME280;60594;50.204;8.844;2023-03-21T01:46:50;100169.03;;;8.68;78.83
72570;BME280;60594;50.204;8.844;2023-03-21T01:49:56;100158.94;;;8.73;78.85
72570;BME280;60594;50.204;8.844;2023-03-21T01:52:37;100156.34;;;8.84;79.47
72570;BME280;60594;50.204;8.844;2023-03-21T01:55:14;100161.56;;;8.96;78.96
72570;BME280;60594;50.204;8.844;2023-03-21T01:57:54;100160.69;;;8.85;79.92
72570;BME280;60594;50.204;8.844;2023-03-21T02:00:25;100168.75;;;8.60;78.20
72570;BME280;60594;50.204;8.844;2023-03-21T02:03:05;100155.22;;;8.39;78.87
72570;BME280;60594;50.204;8.844;2023-03-21T02:08:15;100153.22;;;8.30;78.80
72570;BME280;60594;50.204;8.844;2023-03-21T02:10:44;100149.81;;;8.28;79.20
72570;BME280;60594;50.204;8.844;2023-03-21T02:13:19;100150.47;;;8.19;79.44
72570;BME280;60594;50.204;8.844;2023-03-21T02:15:55;100137.94;;;8.21;79.66
72570;BME280;60594;50.204;8.844;2023-03-21T02:18:58;100145.09;;;8.44;79.01
72570;BME280;60594;50.204;8.844;2023-03-21T02:21:36;100143.81;;;8.50;79.49
72570;BME280;60594;50.204;8.844;2023-03-21T02:25:03;100141.03;;;8.51;78.63
72570;BME280;60594;50.204;8.844;2023-03-21T02:27:14;100133.34;;;8.59;78.88
72570;BME280;60594;50.204;8.844;2023-03-21T02:37:38;100132.94;;;8.29;78.94
72570;BME280;60594;50.204;8.844;2023-03-21T02:40:12;100130.28;;;8.29;78.54
72570;BME280;60594;50.204;8.844;2023-03-21T02:45:37;100129.56;;;8.27;78.98
72570;BME280;60594;50.204;8.844;2023-03-21T02:48:09;100119.44;;;8.32;78.21
72570;BME280;60594;50.204;8.844;2023-03-21T02:50:42;100121.50;;;8.52;78.62
72570;BME280;60594;50.204;8.844;2023-03-21T02:53:13;100118.84;;;8.52;79.15
72570;BME280;60594;50.204;8.844;2023-03-21T02:55:42;100119.91;;;8.50;78.34
72570;BME280;60594;50.204;8.844;2023-03-21T02:58:12;100128.56;;;8.41;79.19
72570;BME280;60594;50.204;8.844;2023-03-21T03:00:46;100122.31;;;8.17;79.38
72570;BME280;60594;50.204;8.844;2023-03-21T03:03:22;100120.41;;;8.31;79.70
72570;BME280;60594;50.204;8.844;2023-03-21T03:05:51;100119.44;;;8.32;79.82
72570;BME280;60594;50.204;8.844;2023-03-21T03:16:38;100112.34;;;8.20;80.10
72570;BME280;60594;50.204;8.844;2023-03-21T03:19:09;100115.31;;;8.16;80.33
72570;BME280;60594;50.204;8.844;2023-03-21T03:24:11;100117.16;;;8.03;79.07
72570;BME280;60594;50.204;8.844;2023-03-21T03:26:50;100114.59;;;8.01;79.83
72570;BME280;60594;50.204;8.844;2023-03-21T03:29:20;100110.59;;;7.83;80.33
72570;BME280;60594;50.204;8.844;2023-03-21T03:34:24;100104.13;;;7.87;81.10
72570;BME280;60594;50.204;8.844;2023-03-21T03:36:55;100105.16;;;7.97;80.58
72570;BME280;60594;50.204;8.844;2023-03-21T03:39:34;100111.41;;;7.96;80.84
72570;BME280;60594;50.204;8.844;2023-03-21T03:42:08;100112.06;;;8.00;80.49
72570;BME280;60594;50.204;8.844;2023-03-21T03:44:41;100111.00;;;8.02;80.11
72570;BME280;60594;50.204;8.844;2023-03-21T03:47:21;100107.28;;;7.92;81.05
72570;BME280;60594;50.204;8.844;2023-03-21T03:50:05;100106.44;;;7.92;80.21
72570;BME280;60594;50.204;8.844;2023-03-21T03:52:48;100097.53;;;7.80;81.31
72570;BME280;60594;50.204;8.844;2023-03-21T03:55:19;100096.47;;;7.83;80.35
72570;BME280;60594;50.204;8.844;2023-03-21T03:57:51;100110.81;;;7.80;80.59
72570;BME280;60594;50.204;8.844;2023-03-21T04:00:19;100100.50;;;7.76;80.58
72570;BME280;60594;50.204;8.844;2023-03-21T04:02:48;100095.97;;;7.78;80.94
72570;BME280;60594;50.204;8.844;2023-03-21T04:05:19;100093.22;;;7.67;81.27
72570;BME280;60594;50.204;8.844;2023-03-21T04:07:47;100093.41;;;7.64;81.18
72570;BME280;60594;50.204;8.844;2023-03-21T04:10:18;100092.44;;;7.40;82.47
72570;BME280;60594;50.204;8.844;2023-03-21T04:12:46;100086.00;;;7.44;82.40
72570;BME280;60594;50.204;8.844;2023-03-21T04:15:31;100087.91;;;7.42;82.81
72570;BME280;60594;50.204;8.844;2023-03-21T04:18:04;100093.72;;;7.47;82.67
72570;BME280;60594;50.204;8.844;2023-03-21T04:20:31;100082.81;;;7.51;81.85
72570;BME280;60594;50.204;8.844;2023-03-21T04:22:57;100089.81;;;7.52;82.40
72570;BME280;60594;50.204;8.844;2023-03-21T04:25:24;100096.28;;;7.36;81.67
72570;BME280;60594;50.204;8.844;2023-03-21T04:27:55;100094.38;;;7.38;83.43
72570;BME280;60594;50.204;8.844;2023-03-21T04:30:47;100082.72;;;7.40;83.62
72570;BME280;60594;50.204;8.844;2023-03-21T04:33:17;100078.38;;;7.52;82.33
72570;BME280;60594;50.204;8.844;2023-03-21T04:35:52;100085.56;;;7.50;83.40
72570;BME280;60594;50.204;8.844;2023-03-21T04:38:23;100076.88;;;7.35;82.55
72570;BME280;60594;50.204;8.844;2023-03-21T04:40:49;100081.66;;;7.43;83.49
72570;BME280;60594;50.204;8.844;2023-03-21T04:43:16;100083.22;;;7.45;82.99
72570;BME280;60594;50.204;8.844;2023-03-21T04:45:43;100079.97;;;7.42;81.99
72570;BME280;60594;50.204;8.844;2023-03-21T04:48:09;100081.34;;;7.47;81.59
72570;BME280;60594;50.204;8.844;2023-03-21T04:50:36;100081.44;;;7.46;82.16
72570;BME280;60594;50.204;8.844;2023-03-21T04:53:03;100077.31;;;7.54;83.00
72570;BME280;60594;50.204;8.844;2023-03-21T04:55:29;100074.66;;;7.54;82.41
72570;BME280;60594;50.204;8.844;2023-03-21T04:57:57;100081.03;;;7.39;81.17
72570;BME280;60594;50.204;8.844;2023-03-21T05:00:24;100077.50;;;7.51;82.29
72570;BME280;60594;50.204;8.844;2023-03-21T05:02:51;100068.69;;;7.51;81.45
72570;BME280;60594;50.204;8.844;2023-03-21T05:05:18;100068.38;;;7.43;81.70
72570;BME280;60594;50.204;8.844;2023-03-21T05:07:44;100070.81;;;7.33;81.12
72570;BME280;60594;50.204;8.844;2023-03-21T05:10:11;100074.13;;;7.37;82.55
72570;BME280;60594;50.204;8.844;2023-03-21T05:12:40;100070.63;;;7.49;82.03
72570;BME280;60594;50.204;8.844;2023-03-21T05:15:07;100071.50;;;7.37;81.66
72570;BME280;60594;50.204;8.844;2023-03-21T05:17:35;100080.41;;;7.23;82.49
72570;BME280;60594;50.204;8.844;2023-03-21T05:20:03;100078.75;;;7.08;82.52
72570;BME280;60594;50.204;8.844;2023-03-21T05:22:29;100083.44;;;7.04;83.46
72570;BME280;60594;50.204;8.844;2023-03-21T05:25:07;100087.97;;;7.02;83.34
72570;BME280;60594;50.204;8.844;2023-03-21T05:28:05;100090.94;;;6.98;83.70
72570;BME280;60594;50.204;8.844;2023-03-21T05:30:32;100091.75;;;6.86;84.40
72570;BME280;60594;50.204;8.844;2023-03-21T05:33:00;100087.31;;;6.86;84.34
72570;BME280;60594;50.204;8.844;2023-03-21T05:35:27;100085.31;;;6.90;84.40
72570;BME280;60594;50.204;8.844;2023-03-21T05:37:56;100078.31;;;6.89;84.08
72570;BME280;60594;50.204;8.844;2023-03-21T05:40:25;100088.69;;;6.92;84.62
72570;BME280;60594;50.204;8.844;2023-03-21T05:42:55;100082.00;;;6.86;84.82
72570;BME280;60594;50.204;8.844;2023-03-21T05:45:23;100082.63;;;6.77;85.32
72570;BME280;60594;50.204;8.844;2023-03-21T05:47:50;100075.59;;;6.64;86.14
72570;BME280;60594;50.204;8.844;2023-03-21T05:50:18;100079.44;;;6.72;86.01
72570;BME280;60594;50.204;8.844;2023-03-21T05:52:53;100078.03;;;6.67;85.96
72570;BME280;60594;50.204;8.844;2023-03-21T05:55:20;100081.31;;;6.58;86.25
72570;BME280;60594;50.204;8.844;2023-03-21T05:57:47;100084.75;;;6.46;87.59
72570;BME280;60594;50.204;8.844;2023-03-21T06:00:19;100077.97;;;6.42;87.88
72570;BME280;60594;50.204;8.844;2023-03-21T06:03:02;100087.50;;;6.44;88.13
72570;BME280;60594;50.204;8.844;2023-03-21T06:05:51;100086.94;;;6.39;88.05
72570;BME280;60594;50.204;8.844;2023-03-21T06:08:23;100071.16;;;6.38;88.50
72570;BME280;60594;50.204;8.844;2023-03-21T06:10:50;100076.91;;;6.44;88.07
72570;BME280;60594;50.204;8.844;2023-03-21T06:13:17;100083.72;;;6.48;87.64
72570;BME280;60594;50.204;8.844;2023-03-21T06:15:44;100083.19;;;6.56;89.09
72570;BME280;60594;50.204;8.844;2023-03-21T06:18:16;100077.69;;;6.59;87.43
72570;BME280;60594;50.204;8.844;2023-03-21T06:20:53;100084.09;;;6.69;87.55
72570;BME280;60594;50.204;8.844;2023-03-21T06:23:20;100091.31;;;6.79;87.09
72570;BME280;60594;50.204;8.844;2023-03-21T06:25:47;100090.59;;;6.77;86.96
72570;BME280;60594;50.204;8.844;2023-03-21T06:28:14;100100.06;;;6.94;86.82
72570;BME280;60594;50.204;8.844;2023-03-21T06:30:41;100097.97;;;6.72;86.88
72570;BME280;60594;50.204;8.844;2023-03-21T06:33:15;100100.94;;;6.68;87.89
72570;BME280;60594;50.204;8.844;2023-03-21T06:35:43;100098.38;;;6.66;87.46
72570;BME280;60594;50.204;8.844;2023-03-21T06:38:10;100104.94;;;6.61;87.52
72570;BME280;60594;50.204;8.844;2023-03-21T06:40:38;100101.72;;;6.56;88.30
72570;BME280;60594;50.204;8.844;2023-03-21T06:43:05;100099.41;;;6.64;88.06
72570;BME280;60594;50.204;8.844;2023-03-21T06:45:32;100103.88;;;6.90;87.85
72570;BME280;60594;50.204;8.844;2023-03-21T06:47:59;100109.41;;;6.73;87.16
72570;BME280;60594;50.204;8.844;2023-03-21T06:50:47;100115.25;;;6.78;87.16
72570;BME280;60594;50.204;8.844;2023-03-21T06:53:15;100112.22;;;6.84;86.99
72570;BME280;60594;50.204;8.844;2023-03-21T06:56:12;100106.38;;;6.79;86.80
72570;BME280;60594;50.204;8.844;2023-03-21T06:58:40;100110.38;;;6.72;87.78
72570;BME280;60594;50.204;8.844;2023-03-21T07:01:11;100105.09;;;6.72;87.72
72570;BME280;60594;50.204;8.844;2023-03-21T07:03:48;100102.88;;;6.78;86.98
72570;BME280;60594;50.204;8.844;2023-03-21T07:06:15;100099.19;;;6.93;88.00
72570;BME280;60594;50.204;8.844;2023-03-21T07:08:42;100095.13;;;7.15;88.90
72570;BME280;60594;50.204;8.844;2023-03-21T07:11:08;100103.19;;;7.26;86.74
72570;BME280;60594;50.204;8.844;2023-03-21T07:13:35;100099.16;;;7.20;86.26
72570;BME280;60594;50.204;8.844;2023-03-21T07:16:04;100106.16;;;7.34;86.13
72570;BME280;60594;50.204;8.844;2023-03-21T07:18:31;100101.34;;;7.26;86.30
72570;BME280;60594;50.204;8.844;2023-03-21T07:20:58;100100.19;;;7.30;85.22
72570;BME280;60594;50.204;8.844;2023-03-21T07:23:25;100097.75;;;7.40;85.72
72570;BME280;60594;50.204;8.844;2023-03-21T07:25:53;100101.59;;;7.48;85.70
72570;BME280;60594;50.204;8.844;2023-03-21T07:28:20;100103.63;;;7.70;83.74
72570;BME280;60594;50.204;8.844;2023-03-21T07:30:56;100099.34;;;7.80;83.10
72570;BME280;60594;50.204;8.844;2023-03-21T07:33:23;100104.00;;;8.01;83.93
72570;BME280;60594;50.204;8.844;2023-03-21T07:35:52;100103.56;;;7.95;82.42
72570;BME280;60594;50.204;8.844;2023-03-21T07:38:19;100103.09;;;8.13;83.59
72570;BME280;60594;50.204;8.844;2023-03-21T07:40:47;100103.22;;;8.12;82.38
72570;BME280;60594;50.204;8.844;2023-03-21T07:43:14;100100.84;;;8.20;83.34
72570;BME280;60594;50.204;8.844;2023-03-21T07:45:44;100095.53;;;8.32;83.19
72570;BME280;60594;50.204;8.844;2023-03-21T07:48:11;100109.13;;;8.64;81.26
72570;BME280;60594;50.204;8.844;2023-03-21T07:50:39;100100.53;;;8.84;81.61
72570;BME280;60594;50.204;8.844;2023-03-21T07:53:07;100105.75;;;8.96;79.65
72570;BME280;60594;50.204;8.844;2023-03-21T07:55:34;100109.28;;;8.97;78.49
72570;BME280;60594;50.204;8.844;2023-03-21T07:58:02;100104.41;;;8.91;79.64
72570;BME280;60594;50.204;8.844;2023-03-21T08:00:29;100108.13;;;8.88;78.74
72570;BME280;60594;50.204;8.844;2023-03-21T08:02:57;100110.13;;;8.97;79.62
72570;BME280;60594;50.204;8.844;2023-03-21T08:05:29;100089.72;;;9.09;79.76
72570;BME280;60594;50.204;8.844;2023-03-21T08:07:56;100096.03;;;9.08;78.25
72570;BME280;60594;50.204;8.844;2023-03-21T08:10:22;100097.03;;;9.18;78.43
72570;BME280;60594;50.204;8.844;2023-03-21T08:12:49;100096.81;;;9.32;78.09
72570;BME280;60594;50.204;8.844;2023-03-21T08:15:16;100099.88;;;9.60;77.28
72570;BME280;60594;50.204;8.844;2023-03-21T08:17:42;100103.53;;;9.70;75.57
72570;BME280;60594;50.204;8.844;2023-03-21T08:20:16;100098.94;;;9.83;75.52
72570;BME280;60594;50.204;8.844;2023-03-21T08:22:43;100098.56;;;9.99;74.62
72570;BME280;60594;50.204;8.844;2023-03-21T08:25:11;100092.03;;;9.92;74.34
72570;BME280;60594;50.204;8.844;2023-03-21T08:27:40;100083.06;;;9.82;75.06
72570;BME280;60594;50.204;8.844;2023-03-21T08:30:09;100092.91;;;9.81;74.96
72570;BME280;60594;50.204;8.844;2023-03-21T08:32:35;100093.00;;;9.80;75.43
72570;BME280;60594;50.204;8.844;2023-03-21T08:35:05;100096.88;;;9.76;75.09
72570;BME280;60594;50.204;8.844;2023-03-21T08:37:36;100100.59;;;9.73;75.46
72570;BME280;60594;50.204;8.844;2023-03-21T08:40:04;100084.41;;;9.65;75.12
72570;BME280;60594;50.204;8.844;2023-03-21T08:42:33;100093.13;;;9.78;75.26
72570;BME280;60594;50.204;8.844;2023-03-21T08:45:00;100100.63;;;9.95;76.62
72570;BME280;60594;50.204;8.844;2023-03-21T08:47:27;100092.75;;;10.05;75.09
72570;BME280;60594;50.204;8.844;2023-03-21T08:49:53;100096.50;;;10.35;75.29
72570;BME280;60594;50.204;8.844;2023-03-21T08:52:20;100091.47;;;10.53;72.27
72570;BME280;60594;50.204;8.844;2023-03-21T08:54:47;100102.50;;;10.60;72.06
72570;BME280;60594;50.204;8.844;2023-03-21T08:57:14;100107.19;;;10.67;71.39
72570;BME280;60594;50.204;8.844;2023-03-21T08:59:41;100098.38;;;10.67;71.65
72570;BME280;60594;50.204;8.844;2023-03-21T09:02:09;100097.13;;;11.02;71.26
72570;BME280;60594;50.204;8.844;2023-03-21T09:04:37;100087.66;;;11.50;70.02
72570;BME280;60594;50.204;8.844;2023-03-21T09:07:03;100081.19;;;11.73;69.28
72570;BME280;60594;50.204;8.844;2023-03-21T09:09:31;100092.94;;;11.91;69.75
72570;BME280;60594;50.204;8.844;2023-03-21T09:11:57;100083.84;;;12.03;70.12
72570;BME280;60594;50.204;8.844;2023-03-21T09:14:24;100080.28;;;12.23;67.20
72570;BME280;60594;50.204;8.844;2023-03-21T09:16:50;100085.50;;;12.25;67.40
72570;BME280;60594;50.204;8.844;2023-03-21T09:19:17;100083.69;;;12.35;66.72
72570;BME280;60594;50.204;8.844;2023-03-21T09:21:44;100086.56;;;12.13;66.41
72570;BME280;60594;50.204;8.844;2023-03-21T09:24:11;100086.44;;;11.84;67.14
72570;BME280;60594;50.204;8.844;2023-03-21T09:26:37;100080.59;;;11.90;68.23
72570;BME280;60594;50.204;8.844;2023-03-21T09:29:04;100077.97;;;11.70;68.68
72570;BME280;60594;50.204;8.844;2023-03-21T09:31:31;100085.84;;;11.71;67.80
72570;BME280;60594;50.204;8.844;2023-03-21T09:33:58;100078.84;;;11.59;68.62
72570;BME280;60594;50.204;8.844;2023-03-21T09:36:25;100089.41;;;11.61;69.68
72570;BME280;60594;50.204;8.844;2023-03-21T09:38:53;100075.56;;;11.46;69.13
72570;BME280;60594;50.204;8.844;2023-03-21T09:44:41;100079.09;;;11.56;69.18
72570;BME280;60594;50.204;8.844;2023-03-21T09:47:27;100087.25;;;11.75;68.60
72570;BME280;60594;50.204;8.844;2023-03-21T09:53:19;100077.41;;;11.76;68.78
72570;BME280;60594;50.204;8.844;2023-03-21T09:55:48;100070.63;;;12.02;67.52
72570;BME280;60594;50.204;8.844;2023-03-21T09:58:26;100079.50;;;12.02;69.43
72570;BME280;60594;50.204;8.844;2023-03-21T10:01:25;100068.81;;;12.02;66.81
72570;BME280;60594;50.204;8.844;2023-03-21T10:04:00;100083.38;;;11.89;67.80
72570;BME280;60594;50.204;8.844;2023-03-21T10:06:29;100086.06;;;11.89;68.04
72570;BME280;60594;50.204;8.844;2023-03-21T10:09:02;100083.28;;;12.00;66.53
72570;BME280;60594;50.204;8.844;2023-03-21T10:11:50;100073.22;;;11.83;68.19
72570;BME280;60594;50.204;8.844;2023-03-21T10:14:28;100073.72;;;11.97;68.18
72570;BME280;60594;50.204;8.844;2023-03-21T10:17:00;100075.56;;;12.06;66.89
72570;BME280;60594;50.204;8.844;2023-03-21T10:19:28;100070.78;;;12.10;67.86
72570;BME280;60594;50.204;8.844;2023-03-21T10:21:55;100068.81;;;12.02;67.23
72570;BME280;60594;50.204;8.844;2023-03-21T10:24:25;100074.03;;;12.04;67.80
72570;BME280;60594;50.204;8.844;2023-03-21T10:26:53;100073.03;;;12.05;66.63
72570;BME280;60594;50.204;8.844;2023-03-21T10:29:26;100073.03;;;12.05;66.22
72570;BME280;60594;50.204;8.844;2023-03-21T10:31:54;100075.16;;;12.01;67.28
72570;BME280;60594;50.204;8.844;2023-03-21T10:34:45;100070.38;;;12.05;67.42
72570;BME280;60594;50.204;8.844;2023-03-21T10:37:13;100063.34;;;12.04;67.15
72570;BME280;60594;50.204;8.844;2023-03-21T10:39:42;100071.22;;;12.05;67.89
72570;BME280;60594;50.204;8.844;2023-03-21T10:42:28;100066.53;;;11.98;67.14
72570;BME280;60594;50.204;8.844;2023-03-21T10:44:55;100064.59;;;12.00;67.83
72570;BME280;60594;50.204;8.844;2023-03-21T10:47:30;100062.19;;;11.97;67.82
72570;BME280;60594;50.204;8.844;2023-03-21T10:50:01;100070.59;;;11.92;68.57
72570;BME280;60594;50.204;8.844;2023-03-21T10:52:29;100060.03;;;11.91;68.12
72570;BME280;60594;50.204;8.844;2023-03-21T10:57:32;100064.44;;;11.92;68.91
72570;BME280;60594;50.204;8.844;2023-03-21T10:59:59;100068.53;;;11.66;69.20
72570;BME280;60594;50.204;8.844;2023-03-21T11:02:32;100072.81;;;11.57;69.94
72570;BME280;60594;50.204;8.844;2023-03-21T11:05:23;100073.69;;;11.47;70.09
72570;BME280;60594;50.204;8.844;2023-03-21T11:08:07;100062.47;;;11.43;71.58
72570;BME280;60594;50.204;8.844;2023-03-21T11:10:47;100062.94;;;11.58;73.46
72570;BME280;60594;50.204;8.844;2023-03-21T11:13:33;100064.31;;;11.52;71.31
72570;BME280;60594;50.204;8.844;2023-03-21T11:19:00;100075.34;;;11.59;72.48
72570;BME280;60594;50.204;8.844;2023-03-21T11:21:27;100056.88;;;11.67;73.23
72570;BME280;60594;50.204;8.844;2023-03-21T11:24:01;100064.63;;;11.70;73.46
72570;BME280;60594;50.204;8.844;2023-03-21T11:26:34;100063.38;;;11.53;73.52
72570;BME280;60594;50.204;8.844;2023-03-21T11:29:21;100054.72;;;11.61;75.83
72570;BME280;60594;50.204;8.844;2023-03-21T11:31:50;100059.19;;;11.60;76.16
72570;BME280;60594;50.204;8.844;2023-03-21T11:34:25;100061.66;;;11.52;77.88
72570;BME280;60594;50.204;8.844;2023-03-21T11:36:58;100056.69;;;11.38;79.96
72570;BME280;60594;50.204;8.844;2023-03-21T11:39:30;100056.81;;;11.37;80.14
72570;BME280;60594;50.204;8.844;2023-03-21T11:41:57;100063.47;;;11.22;80.36
72570;BME280;60594;50.204;8.844;2023-03-21T11:44:30;100048.03;;;11.05;82.95
72570;BME280;60594;50.204;8.844;2023-03-21T11:46:57;100043.47;;;10.96;83.71
72570;BME280;60594;50.204;8.844;2023-03-21T11:49:24;100055.16;;;10.84;83.76
72570;BME280;60594;50.204;8.844;2023-03-21T11:51:59;100056.06;;;10.73;85.56
72570;BME280;60594;50.204;8.844;2023-03-21T11:54:40;100062.00;;;10.66;86.76
72570;BME280;60594;50.204;8.844;2023-03-21T11:57:25;100050.31;;;10.57;88.70
72570;BME280;60594;50.204;8.844;2023-03-21T12:03:01;100038.38;;;10.41;89.72
72570;BME280;60594;50.204;8.844;2023-03-21T12:05:33;100044.63;;;10.51;91.24
72570;BME280;60594;50.204;8.844;2023-03-21T12:11:28;100040.66;;;10.45;92.62
72570;BME280;60594;50.204;8.844;2023-03-21T12:17:23;100029.13;;;10.56;93.15
72570;BME280;60594;50.204;8.844;2023-03-21T12:20:11;100038.31;;;10.63;94.01
72570;BME280;60594;50.204;8.844;2023-03-21T12:23:11;100029.25;;;10.54;97.68
72570;BME280;60594;50.204;8.844;2023-03-21T12:39:47;100010.19;;;10.59;97.86
72570;BME280;60594;50.204;8.844;2023-03-21T12:42:29;100008.56;;;10.47;95.03
72570;BME280;60594;50.204;8.844;2023-03-21T12:45:03;100018.88;;;10.40;96.66
72570;BME280;60594;50.204;8.844;2023-03-21T12:47:35;100012.94;;;10.36;97.00
72570;BME280;60594;50.204;8.844;2023-03-21T12:52:41;100006.59;;;10.17;97.46
72570;BME280;60594;50.204;8.844;2023-03-21T12:55:17;100002.84;;;10.19;96.61
72570;BME280;60594;50.204;8.844;2023-03-21T12:57:48;100009.63;;;10.12;99.73
72570;BME280;60594;50.204;8.844;2023-03-21T13:03:07;99991.31;;;10.19;100.00
72570;BME280;60594;50.204;8.844;2023-03-21T13:05:54;99983.75;;;10.14;97.48
72570;BME280;60594;50.204;8.844;2023-03-21T13:08:37;99980.34;;;10.12;98.71
72570;BME280;60594;50.204;8.844;2023-03-21T13:11:06;99974.28;;;10.10;99.62
72570;BME280;60594;50.204;8.844;2023-03-21T13:13:38;99971.88;;;10.18;99.79
72570;BME280;60594;50.204;8.844;2023-03-21T13:16:27;99963.91;;;10.39;95.61
72570;BME280;60594;50.204;8.844;2023-03-21T13:30:05;99971.53;;;9.90;93.06
72570;BME280;60594;50.204;8.844;2023-03-21T13:32:38;99973.84;;;9.83;94.42
72570;BME280;60594;50.204;8.844;2023-03-21T13:37:39;99973.00;;;9.72;97.57
72570;BME280;60594;50.204;8.844;2023-03-21T13:40:18;99964.56;;;9.67;100.00
72570;BME280;60594;50.204;8.844;2023-03-21T13:42:51;99955.38;;;9.60;100.00
72570;BME280;60594;50.204;8.844;2023-03-21T13:45:51;99952.34;;;9.53;100.00
72570;BME280;60594;50.204;8.844;2023-03-21T13:48:30;99953.69;;;9.59;100.00
72570;BME280;60594;50.204;8.844;2023-03-21T13:51:03;99954.16;;;9.53;100.00
72570;BME280;60594;50.204;8.844;2023-03-21T13:53:38;99953.81;;;9.35;100.00
72570;BME280;60594;50.204;8.844;2023-03-21T14:04:10;99943.19;;;9.13;100.00
72570;BME280;60594;50.204;8.844;2023-03-21T14:06:46;99942.59;;;9.10;100.00
72570;BME280;60594;50.204;8.844;2023-03-21T14:09:19;99944.38;;;9.09;100.00
72570;BME280;60594;50.204;8.844;2023-03-21T14:11:49;99941.25;;;9.15;100.00
72570;BME280;60594;50.204;8.844;2023-03-21T14:14:19;99930.63;;;9.15;100.00
72570;BME280;60594;50.204;8.844;2023-03-21T14:16:47;99923.00;;;9.11;100.00
72570;BME280;60594;50.204;8.844;2023-03-21T14:19:13;99929.19;;;9.11;100.00
72570;BME280;60594;50.204;8.844;2023-03-21T14:21:47;99933.53;;;9.12;100.00
72570;BME280;60594;50.204;8.844;2023-03-21T14:24:16;99928.66;;;9.06;100.00
72570;BME280;60594;50.204;8.844;2023-03-21T14:26:46;99927.00;;;9.05;100.00
72570;BME280;60594;50.204;8.844;2023-03-21T14:29:25;99920.44;;;8.98;100.00
72570;BME280;60594;50.204;8.844;2023-03-21T14:31:53;99919.34;;;8.90;100.00
72570;BME280;60594;50.204;8.844;2023-03-21T14:34:21;99909.94;;;8.86;100.00
72570;BME280;60594;50.204;8.844;2023-03-21T14:36:48;99912.59;;;8.86;100.00
72570;BME280;60594;50.204;8.844;2023-03-21T14:39:20;99909.22;;;8.95;100.00
72570;BME280;60594;50.204;8.844;2023-03-21T14:41:50;99898.84;;;8.92;100.00
72570;BME280;60594;50.204;8.844;2023-03-21T14:44:19;99893.75;;;8.89;100.00
72570;BME280;60594;50.204;8.844;2023-03-21T14:47:01;99888.56;;;8.87;100.00
72570;BME280;60594;50.204;8.844;2023-03-21T14:49:32;99888.78;;;8.84;100.00